sensor_id;sensor_type;location;lat;lon;timestamp;pressure;altitude;pressure_sealevel;temperature;humidity
61205;BME280;47068;55.780;37.520;2023-04-01T00:00:37;98404.66;;;3.49;72.89
61205;BME280;47068;55.780;37.520;2023-04-01T00:03:03;98519.91;;;4.24;73.13
61205;BME280;47068;55.780;37.520;2023-04-01T00:05:30;98519.16;;;4.32;73.41
61205;BME280;47068;55.780;37.520;2023-04-01T00:07:56;98525.94;;;4.34;73.24
61205;BME280;47068;55.780;37.520;2023-04-01T00:10:21;98532.16;;;4.33;73.18
61205;BME280;47068;55.780;37.520;2023-04-01T00:12:47;98515.00;;;4.29;73.45
61205;BME280;47068;55.780;37.520;2023-04-01T00:15:12;98520.88;;;4.23;73.23
61205;BME280;47068;55.780;37.520;2023-04-01T00:17:38;98517.28;;;4.24;73.43
61205;BME280;47068;55.780;37.520;2023-04-01T00:20:05;98526.75;;;4.17;73.36
61205;BME280;47068;55.780;37.520;2023-04-01T00:22:32;98517.38;;;4.15;73.91
61205;BME280;47068;55.780;37.520;2023-04-01T00:24:59;98517.91;;;4.18;73.53
61205;BME280;47068;55.780;37.520;2023-04-01T00:27:24;98521.56;;;4.25;73.65
61205;BME280;47068;55.780;37.520;2023-04-01T00:29:50;98513.00;;;4.23;73.64
61205;BME280;47068;55.780;37.520;2023-04-01T00:32:15;98506.06;;;4.22;73.99
61205;BME280;47068;55.780;37.520;2023-04-01T00:34:44;98514.19;;;4.29;73.81
61205;BME280;47068;55.780;37.520;2023-04-01T00:37:09;98511.72;;;4.27;73.86
61205;BME280;47068;55.780;37.520;2023-04-01T00:39:35;98505.47;;;4.28;73.78
61205;BME280;47068;55.780;37.520;2023-04-01T00:42:03;98512.84;;;4.25;73.85
61205;BME280;47068;55.780;37.520;2023-04-01T00:44:33;98497.66;;;4.19;74.24
61205;BME280;47068;55.780;37.520;2023-04-01T00:47:00;98510.97;;;4.17;73.94
61205;BME280;47068;55.780;37.520;2023-04-01T00:49:29;98501.88;;;4.12;74.42
61205;BME280;47068;55.780;37.520;2023-04-01T00:51:59;98268.56;;;2.36;74.16
61205;BME280;47068;55.780;37.520;2023-04-01T00:54:27;98507.38;;;4.18;74.44
61205;BME280;47068;55.780;37.520;2023-04-01T00:57:06;98500.38;;;4.27;74.41
61205;BME280;47068;55.780;37.520;2023-04-01T00:59:43;98483.81;;;4.17;74.10
61205;BME280;47068;55.780;37.520;2023-04-01T01:02:11;98499.75;;;4.33;74.30
61205;BME280;47068;55.780;37.520;2023-04-01T01:04:37;98497.94;;;4.33;74.12
61205;BME280;47068;55.780;37.520;2023-04-01T01:18:07;98475.00;;;4.26;72.90
61205;BME280;47068;55.780;37.520;2023-04-01T01:28:47;98507.59;;;4.51;72.76
61205;BME280;47068;55.780;37.520;2023-04-01T01:31:20;98502.44;;;4.41;73.32
61205;BME280;47068;55.780;37.520;2023-04-01T01:36:26;98500.50;;;4.25;73.63
61205;BME280;47068;55.780;37.520;2023-04-01T01:38:54;98506.47;;;4.27;73.93
61205;BME280;47068;55.780;37.520;2023-04-01T01:41:23;98506.13;;;4.30;73.99
61205;BME280;47068;55.780;37.520;2023-04-01T01:43:53;98493.13;;;4.29;73.92
61205;BME280;47068;55.780;37.520;2023-04-01T01:46:23;98476.06;;;4.15;73.82
61205;BME280;47068;55.780;37.520;2023-04-01T01:48:50;98509.38;;;4.24;73.59
61205;BME280;47068;55.780;37.520;2023-04-01T01:51:19;98507.19;;;4.38;73.67
61205;BME280;47068;55.780;37.520;2023-04-01T01:53:45;98494.47;;;4.33;73.66
61205;BME280;47068;55.780;37.520;2023-04-01T01:56:11;98506.56;;;4.44;73.86
61205;BME280;47068;55.780;37.520;2023-04-01T01:58:42;98517.72;;;4.38;73.75
61205;BME280;47068;55.780;37.520;2023-04-01T02:01:13;98509.09;;;4.27;73.97
61205;BME280;47068;55.780;37.520;2023-04-01T02:03:40;98501.25;;;4.35;74.34
61205;BME280;47068;55.780;37.520;2023-04-01T02:06:10;98508.53;;;4.42;73.95
61205;BME280;47068;55.780;37.520;2023-04-01T02:08:49;98506.25;;;4.47;74.00
61205;BME280;47068;55.780;37.520;2023-04-01T02:11:18;98509.25;;;4.52;73.79
61205;BME280;47068;55.780;37.520;2023-04-01T02:14:21;98515.34;;;4.52;73.90
61205;BME280;47068;55.780;37.520;2023-04-01T02:17:07;98517.84;;;4.54;73.80
61205;BME280;47068;55.780;37.520;2023-04-01T02:19:39;98500.78;;;4.40;73.85
61205;BME280;47068;55.780;37.520;2023-04-01T02:22:10;98515.34;;;4.52;74.07
61205;BME280;47068;55.780;37.520;2023-04-01T02:24:38;98527.00;;;4.50;73.93
61205;BME280;47068;55.780;37.520;2023-04-01T02:27:05;98385.44;;;3.66;73.70
61205;BME280;47068;55.780;37.520;2023-04-01T02:29:31;98492.75;;;4.42;73.82
61205;BME280;47068;55.780;37.520;2023-04-01T02:31:58;98521.31;;;4.54;73.73
61205;BME280;47068;55.780;37.520;2023-04-01T02:34:24;98522.34;;;4.61;73.81
61205;BME280;47068;55.780;37.520;2023-04-01T02:36:50;98519.56;;;4.63;73.53
61205;BME280;47068;55.780;37.520;2023-04-01T02:39:16;98517.41;;;4.66;73.38
61205;BME280;47068;55.780;37.520;2023-04-01T02:41:44;98527.88;;;4.76;73.40
61205;BME280;47068;55.780;37.520;2023-04-01T02:44:11;98531.97;;;4.79;73.27
61205;BME280;47068;55.780;37.520;2023-04-01T02:46:37;98533.50;;;4.81;72.90
61205;BME280;47068;55.780;37.520;2023-04-01T02:49:04;98532.50;;;4.82;72.61
61205;BME280;47068;55.780;37.520;2023-04-01T02:51:29;98486.84;;;4.48;72.42
61205;BME280;47068;55.780;37.520;2023-04-01T02:53:55;98520.25;;;4.73;72.65
61205;BME280;47068;55.780;37.520;2023-04-01T02:56:20;98525.66;;;4.71;72.47
61205;BME280;47068;55.780;37.520;2023-04-01T02:58:46;98538.84;;;4.71;72.63
61205;BME280;47068;55.780;37.520;2023-04-01T03:01:12;98506.97;;;4.57;72.48
61205;BME280;47068;55.780;37.520;2023-04-01T03:03:39;98522.19;;;4.63;72.65
61205;BME280;47068;55.780;37.520;2023-04-01T03:06:09;98528.50;;;4.70;72.66
61205;BME280;47068;55.780;37.520;2023-04-01T03:08:35;98526.97;;;4.67;72.82
61205;BME280;47068;55.780;37.520;2023-04-01T03:11:01;98539.31;;;4.67;72.58
61205;BME280;47068;55.780;37.520;2023-04-01T03:13:26;98536.13;;;4.55;72.68
61205;BME280;47068;55.780;37.520;2023-04-01T03:15:52;98546.94;;;4.52;72.93
61205;BME280;47068;55.780;37.520;2023-04-01T03:18:18;98517.72;;;4.38;73.01
61205;BME280;47068;55.780;37.520;2023-04-01T03:20:44;98539.53;;;4.48;73.22
61205;BME280;47068;55.780;37.520;2023-04-01T03:23:09;98544.84;;;4.56;73.38
61205;BME280;47068;55.780;37.520;2023-04-01T03:25:35;98538.06;;;4.53;73.46
61205;BME280;47068;55.780;37.520;2023-04-01T03:28:01;98548.13;;;4.58;73.30
61205;BME280;47068;55.780;37.520;2023-04-01T03:30:27;98549.44;;;4.54;73.24
61205;BME280;47068;55.780;37.520;2023-04-01T03:32:53;98549.28;;;4.55;73.57
61205;BME280;47068;55.780;37.520;2023-04-01T03:35:18;98517.34;;;4.32;73.12
61205;BME280;47068;55.780;37.520;2023-04-01T03:37:44;98550.72;;;4.50;72.72
61205;BME280;47068;55.780;37.520;2023-04-01T03:40:10;98553.97;;;4.44;73.45
61205;BME280;47068;55.780;37.520;2023-04-01T03:42:35;98540.97;;;4.24;73.88
61205;BME280;47068;55.780;37.520;2023-04-01T03:45:02;98568.94;;;4.43;73.91
61205;BME280;47068;55.780;37.520;2023-04-01T03:47:29;98565.72;;;4.31;73.79
61205;BME280;47068;55.780;37.520;2023-04-01T03:49:54;98580.63;;;4.41;73.82
61205;BME280;47068;55.780;37.520;2023-04-01T03:52:20;98553.25;;;4.33;73.60
61205;BME280;47068;55.780;37.520;2023-04-01T03:54:45;98581.56;;;4.57;73.17
61205;BME280;47068;55.780;37.520;2023-04-01T03:57:11;98569.47;;;4.47;73.08
61205;BME280;47068;55.780;37.520;2023-04-01T03:59:37;98586.59;;;4.51;73.22
61205;BME280;47068;55.780;37.520;2023-04-01T04:02:02;98584.94;;;4.50;72.92
61205;BME280;47068;55.780;37.520;2023-04-01T04:04:28;98590.91;;;4.52;72.95
61205;BME280;47068;55.780;37.520;2023-04-01T04:06:54;98598.66;;;4.53;73.52
61205;BME280;47068;55.780;37.520;2023-04-01T04:09:19;98590.53;;;4.47;73.22
61205;BME280;47068;55.780;37.520;2023-04-01T04:11:45;98556.16;;;4.30;73.18
61205;BME280;47068;55.780;37.520;2023-04-01T04:14:10;98600.81;;;4.58;72.97
61205;BME280;47068;55.780;37.520;2023-04-01T04:16:36;98603.16;;;4.61;72.86
61205;BME280;47068;55.780;37.520;2023-04-01T04:19:03;98566.75;;;4.39;72.66
61205;BME280;47068;55.780;37.520;2023-04-01T04:21:31;98604.06;;;4.52;72.85
61205;BME280;47068;55.780;37.520;2023-04-01T04:23:58;98601.34;;;4.44;73.47
61205;BME280;47068;55.780;37.520;2023-04-01T04:26:24;98603.03;;;4.45;73.37
61205;BME280;47068;55.780;37.520;2023-04-01T04:28:49;98582.94;;;4.44;73.76
61205;BME280;47068;55.780;37.520;2023-04-01T04:31:19;98586.81;;;4.57;73.75
61205;BME280;47068;55.780;37.520;2023-04-01T04:33:45;98585.41;;;4.63;73.38
61205;BME280;47068;55.780;37.520;2023-04-01T04:36:11;98605.94;;;4.77;73.12
61205;BME280;47068;55.780;37.520;2023-04-01T04:38:36;98601.84;;;4.83;72.89
61205;BME280;47068;55.780;37.520;2023-04-01T04:41:02;98619.81;;;4.87;72.95
61205;BME280;47068;55.780;37.520;2023-04-01T04:43:27;98619.81;;;4.87;72.92
61205;BME280;47068;55.780;37.520;2023-04-01T04:45:53;98616.34;;;4.87;72.82
61205;BME280;47068;55.780;37.520;2023-04-01T04:48:18;98581.13;;;4.62;73.00
61205;BME280;47068;55.780;37.520;2023-04-01T04:50:47;98256.91;;;2.49;72.70
61205;BME280;47068;55.780;37.520;2023-04-01T04:53:13;98617.53;;;4.92;72.65
61205;BME280;47068;55.780;37.520;2023-04-01T04:55:47;98632.22;;;4.95;72.87
61205;BME280;47068;55.780;37.520;2023-04-01T04:58:12;98590.72;;;4.71;72.57
61205;BME280;47068;55.780;37.520;2023-04-01T05:00:38;98249.91;;;2.57;72.50
61205;BME280;47068;55.780;37.520;2023-04-01T05:03:03;98641.38;;;5.08;72.67
61205;BME280;47068;55.780;37.520;2023-04-01T05:05:29;98644.66;;;5.02;72.35
61205;BME280;47068;55.780;37.520;2023-04-01T05:07:56;98611.91;;;4.87;71.95
61205;BME280;47068;55.780;37.520;2023-04-01T05:10:22;98613.94;;;4.93;72.49
61205;BME280;47068;55.780;37.520;2023-04-01T05:12:47;98644.56;;;5.20;72.24
61205;BME280;47068;55.780;37.520;2023-04-01T05:15:13;98627.56;;;5.14;72.12
61205;BME280;47068;55.780;37.520;2023-04-01T05:17:39;98635.34;;;5.16;72.18
61205;BME280;47068;55.780;37.520;2023-04-01T05:20:08;98643.81;;;5.28;72.01
61205;BME280;47068;55.780;37.520;2023-04-01T05:22:33;98631.78;;;5.25;71.98
61205;BME280;47068;55.780;37.520;2023-04-01T05:24:59;98649.81;;;5.38;72.28
61205;BME280;47068;55.780;37.520;2023-04-01T05:27:24;98651.97;;;5.42;71.78
61205;BME280;47068;55.780;37.520;2023-04-01T05:29:50;98638.59;;;5.36;71.25
61205;BME280;47068;55.780;37.520;2023-04-01T05:32:16;98624.41;;;5.37;71.57
61205;BME280;47068;55.780;37.520;2023-04-01T05:34:41;98655.97;;;5.54;71.22
61205;BME280;47068;55.780;37.520;2023-04-01T05:37:07;98627.06;;;5.37;71.53
61205;BME280;47068;55.780;37.520;2023-04-01T05:39:37;98644.34;;;5.65;70.96
61205;BME280;47068;55.780;37.520;2023-04-01T05:42:04;98602.34;;;5.38;70.81
61205;BME280;47068;55.780;37.520;2023-04-01T05:44:30;98640.69;;;5.58;70.69
61205;BME280;47068;55.780;37.520;2023-04-01T05:46:56;98654.94;;;5.81;70.17
61205;BME280;47068;55.780;37.520;2023-04-01T05:49:21;98661.25;;;5.80;70.44
61205;BME280;47068;55.780;37.520;2023-04-01T05:51:47;98506.94;;;5.08;70.47
61205;BME280;47068;55.780;37.520;2023-04-01T05:54:12;98659.22;;;6.08;70.31
61205;BME280;47068;55.780;37.520;2023-04-01T05:56:38;98662.00;;;6.07;69.55
61205;BME280;47068;55.780;37.520;2023-04-01T05:59:03;98668.63;;;6.11;69.83
61205;BME280;47068;55.780;37.520;2023-04-01T06:01:29;98668.66;;;6.19;70.16
61205;BME280;47068;55.780;37.520;2023-04-01T06:03:54;98679.25;;;6.27;68.93
61205;BME280;47068;55.780;37.520;2023-04-01T06:06:25;98674.13;;;6.33;69.12
61205;BME280;47068;55.780;37.520;2023-04-01T06:08:52;98672.34;;;6.42;69.36
61205;BME280;47068;55.780;37.520;2023-04-01T06:23:19;98631.06;;;6.57;67.50
61205;BME280;47068;55.780;37.520;2023-04-01T06:25:37;98685.91;;;6.88;66.59
61205;BME280;47068;55.780;37.520;2023-04-01T06:34:08;98678.66;;;6.98;66.51
61205;BME280;47068;55.780;37.520;2023-04-01T06:39:26;98688.53;;;7.28;65.23
61205;BME280;47068;55.780;37.520;2023-04-01T06:50:26;98694.28;;;7.48;65.35
61205;BME280;47068;55.780;37.520;2023-04-01T06:53:02;98691.50;;;7.41;64.77
61205;BME280;47068;55.780;37.520;2023-04-01T06:55:47;98674.66;;;7.26;65.84
61205;BME280;47068;55.780;37.520;2023-04-01T06:58:23;98667.72;;;7.25;65.85
61205;BME280;47068;55.780;37.520;2023-04-01T07:00:57;98707.34;;;7.58;64.96
61205;BME280;47068;55.780;37.520;2023-04-01T07:03:50;98687.19;;;7.48;63.53
61205;BME280;47068;55.780;37.520;2023-04-01T07:06:28;98709.84;;;7.51;63.98
61205;BME280;47068;55.780;37.520;2023-04-01T07:08:58;98700.91;;;7.60;64.09
61205;BME280;47068;55.780;37.520;2023-04-01T07:11:31;98697.50;;;7.82;63.99
61205;BME280;47068;55.780;37.520;2023-04-01T07:16:39;98700.06;;;8.46;61.90
61205;BME280;47068;55.780;37.520;2023-04-01T07:19:12;98686.84;;;8.68;61.36
61205;BME280;47068;55.780;37.520;2023-04-01T07:21:47;98704.06;;;9.33;59.54
61205;BME280;47068;55.780;37.520;2023-04-01T07:24:19;98705.50;;;9.87;56.27
61205;BME280;47068;55.780;37.520;2023-04-01T07:26:47;98703.94;;;10.22;57.13
61205;BME280;47068;55.780;37.520;2023-04-01T07:29:14;98660.31;;;10.74;55.74
61205;BME280;47068;55.780;37.520;2023-04-01T07:34:28;98711.94;;;11.22;54.14
61205;BME280;47068;55.780;37.520;2023-04-01T07:37:11;98707.78;;;11.13;53.96
61205;BME280;47068;55.780;37.520;2023-04-01T07:43:11;98709.34;;;11.07;52.64
61205;BME280;47068;55.780;37.520;2023-04-01T07:48:33;98714.06;;;11.05;52.22
61205;BME280;47068;55.780;37.520;2023-04-01T07:56:12;98703.66;;;10.68;52.10
61205;BME280;47068;55.780;37.520;2023-04-01T07:58:57;98704.69;;;10.52;52.66
61205;BME280;47068;55.780;37.520;2023-04-01T08:09:45;98725.28;;;10.65;52.15
61205;BME280;47068;55.780;37.520;2023-04-01T08:18:41;98713.69;;;11.36;50.42
61205;BME280;47068;55.780;37.520;2023-04-01T08:21:23;98715.69;;;11.56;50.53
61205;BME280;47068;55.780;37.520;2023-04-01T08:23:52;98731.81;;;12.03;48.46
61205;BME280;47068;55.780;37.520;2023-04-01T08:28:57;98718.75;;;12.62;46.68
61205;BME280;47068;55.780;37.520;2023-04-01T08:32:15;98730.09;;;12.84;45.37
61205;BME280;47068;55.780;37.520;2023-04-01T08:34:41;98721.78;;;12.53;43.59
61205;BME280;47068;55.780;37.520;2023-04-01T08:37:14;98733.38;;;12.80;44.64
61205;BME280;47068;55.780;37.520;2023-04-01T08:39:59;98716.13;;;12.82;44.63
61205;BME280;47068;55.780;37.520;2023-04-01T08:56:06;98741.22;;;10.80;49.99
61205;BME280;47068;55.780;37.520;2023-04-01T09:07:08;98752.59;;;9.94;52.26
61205;BME280;47068;55.780;37.520;2023-04-01T09:15:27;98761.72;;;9.76;50.88
61205;BME280;47068;55.780;37.520;2023-04-01T09:18:21;98764.28;;;9.70;50.75
61205;BME280;47068;55.780;37.520;2023-04-01T09:52:36;98757.69;;;10.69;47.44
61205;BME280;47068;55.780;37.520;2023-04-01T10:00:43;98787.34;;;10.87;47.58
61205;BME280;47068;55.780;37.520;2023-04-01T10:11:48;98790.19;;;13.28;41.62
61205;BME280;47068;55.780;37.520;2023-04-01T10:27:48;98805.59;;;13.19;44.36
61205;BME280;47068;55.780;37.520;2023-04-01T10:52:10;98810.81;;;13.73;42.26
61205;BME280;47068;55.780;37.520;2023-04-01T10:55:12;98821.47;;;14.00;42.64
61205;BME280;47068;55.780;37.520;2023-04-01T11:01:20;98817.34;;;13.51;39.55
61205;BME280;47068;55.780;37.520;2023-04-01T11:38:18;98788.16;;;11.72;44.30
61205;BME280;47068;55.780;37.520;2023-04-01T11:40:55;98809.25;;;11.89;42.53
61205;BME280;47068;55.780;37.520;2023-04-01T11:43:52;98826.13;;;11.96;42.10
61205;BME280;47068;55.780;37.520;2023-04-01T11:51:53;98796.97;;;11.94;40.88
61205;BME280;47068;55.780;37.520;2023-04-01T11:58:02;98827.22;;;12.08;42.06
61205;BME280;47068;55.780;37.520;2023-04-01T12:03:43;98829.09;;;12.14;42.06
61205;BME280;47068;55.780;37.520;2023-04-01T12:06:19;98830.56;;;12.16;43.09
61205;BME280;47068;55.780;37.520;2023-04-01T12:08:54;98830.38;;;12.24;43.20
61205;BME280;47068;55.780;37.520;2023-04-01T12:17:31;98844.34;;;12.61;41.84
61205;BME280;47068;55.780;37.520;2023-04-01T12:23:05;98839.63;;;12.56;42.64
61205;BME280;47068;55.780;37.520;2023-04-01T12:45:28;98844.28;;;12.13;42.95
61205;BME280;47068;55.780;37.520;2023-04-01T12:48:20;98850.72;;;12.26;42.58
61205;BME280;47068;55.780;37.520;2023-04-01T12:55:54;98850.28;;;12.22;43.22
61205;BME280;47068;55.780;37.520;2023-04-01T13:23:56;98873.47;;;12.21;42.49
61205;BME280;47068;55.780;37.520;2023-04-01T13:31:55;98869.50;;;11.68;40.47
61205;BME280;47068;55.780;37.520;2023-04-01T13:35:05;98880.72;;;11.64;41.62
61205;BME280;47068;55.780;37.520;2023-04-01T13:46:10;98893.91;;;11.15;41.30
61205;BME280;47068;55.780;37.520;2023-04-01T13:51:31;98899.66;;;10.97;42.86
61205;BME280;47068;55.780;37.520;2023-04-01T13:57:23;98907.09;;;10.72;44.10
61205;BME280;47068;55.780;37.520;2023-04-01T14:10:42;98900.66;;;10.81;44.95
61205;BME280;47068;55.780;37.520;2023-04-01T14:13:47;98921.41;;;10.86;45.14
61205;BME280;47068;55.780;37.520;2023-04-01T14:22:13;98926.44;;;10.81;47.96
61205;BME280;47068;55.780;37.520;2023-04-01T14:30:35;98929.19;;;10.73;49.89
61205;BME280;47068;55.780;37.520;2023-04-01T14:47:08;98909.47;;;10.38;51.06
61205;BME280;47068;55.780;37.520;2023-04-01T14:49:46;98941.69;;;10.57;50.87
61205;BME280;47068;55.780;37.520;2023-04-01T14:54:48;98962.59;;;10.60;51.26
61205;BME280;47068;55.780;37.520;2023-04-01T14:57:16;98959.75;;;10.62;51.25
61205;BME280;47068;55.780;37.520;2023-04-01T15:00:14;98956.06;;;10.48;50.29
61205;BME280;47068;55.780;37.520;2023-04-01T15:03:08;98962.28;;;10.41;50.82
61205;BME280;47068;55.780;37.520;2023-04-01T15:08:56;98980.25;;;10.39;53.11
61205;BME280;47068;55.780;37.520;2023-04-01T15:17:28;98981.66;;;10.04;55.92
61205;BME280;47068;55.780;37.520;2023-04-01T15:20:10;98982.88;;;10.01;56.83
61205;BME280;47068;55.780;37.520;2023-04-01T15:23:01;98981.66;;;10.04;57.42
61205;BME280;47068;55.780;37.520;2023-04-01T15:32:23;99002.63;;;9.99;58.97
61205;BME280;47068;55.780;37.520;2023-04-01T15:34:58;98992.06;;;9.91;58.67
61205;BME280;47068;55.780;37.520;2023-04-01T15:40:30;99012.97;;;9.94;58.40
61205;BME280;47068;55.780;37.520;2023-04-01T15:43:27;99001.63;;;9.77;59.20
61205;BME280;47068;55.780;37.520;2023-04-01T15:49:36;99023.66;;;9.85;59.22
61205;BME280;47068;55.780;37.520;2023-04-01T16:08:16;99003.22;;;9.55;61.63
61205;BME280;47068;55.780;37.520;2023-04-01T16:21:48;99061.28;;;9.66;62.57
61205;BME280;47068;55.780;37.520;2023-04-01T16:27:35;99071.38;;;9.32;63.33
61205;BME280;47068;55.780;37.520;2023-04-01T16:38:20;99072.22;;;9.32;62.96
61205;BME280;47068;55.780;37.520;2023-04-01T16:43:49;99075.34;;;9.28;63.49
61205;BME280;47068;55.780;37.520;2023-04-01T16:46:31;99087.47;;;9.30;64.06
61205;BME280;47068;55.780;37.520;2023-04-01T16:54:36;99091.28;;;9.28;63.45
61205;BME280;47068;55.780;37.520;2023-04-01T16:59:47;99095.25;;;9.40;62.83
61205;BME280;47068;55.780;37.520;2023-04-01T17:02:23;99073.50;;;9.36;63.24
61205;BME280;47068;55.780;37.520;2023-04-01T17:04:58;99087.44;;;9.46;63.10
61205;BME280;47068;55.780;37.520;2023-04-01T17:07:32;99090.91;;;9.47;63.00
61205;BME280;47068;55.780;37.520;2023-04-01T17:10:18;99093.72;;;9.45;63.23
61205;BME280;47068;55.780;37.520;2023-04-01T17:12:52;99094.75;;;9.36;63.60
61205;BME280;47068;55.780;37.520;2023-04-01T17:18:02;99100.72;;;9.38;63.41
61205;BME280;47068;55.780;37.520;2023-04-01T17:23:20;99103.56;;;9.29;63.75
61205;BME280;47068;55.780;37.520;2023-04-01T17:28:50;99095.28;;;9.24;64.08
61205;BME280;47068;55.780;37.520;2023-04-01T17:39:32;99101.44;;;9.24;64.00
61205;BME280;47068;55.780;37.520;2023-04-01T17:42:30;99109.22;;;9.26;64.28
61205;BME280;47068;55.780;37.520;2023-04-01T17:51:03;99118.19;;;9.25;64.51
61205;BME280;47068;55.780;37.520;2023-04-01T18:10:54;99128.13;;;9.23;64.76
61205;BME280;47068;55.780;37.520;2023-04-01T18:16:26;99135.78;;;9.26;64.74
61205;BME280;47068;55.780;37.520;2023-04-01T18:22:10;99136.78;;;9.17;65.13
61205;BME280;47068;55.780;37.520;2023-04-01T18:24:31;99136.47;;;9.12;65.47
61205;BME280;47068;55.780;37.520;2023-04-01T18:38:38;99157.00;;;9.26;65.25
61205;BME280;47068;55.780;37.520;2023-04-01T18:46:55;99145.34;;;9.90;62.88
61205;BME280;47068;55.780;37.520;2023-04-01T18:52:22;99180.25;;;10.26;63.00
61205;BME280;47068;55.780;37.520;2023-04-01T18:57:57;99172.19;;;10.42;61.53
61205;BME280;47068;55.780;37.520;2023-04-01T19:00:28;99180.91;;;10.28;61.72
61205;BME280;47068;55.780;37.520;2023-04-01T19:03:08;99176.09;;;10.54;62.33
61205;BME280;47068;55.780;37.520;2023-04-01T19:05:42;99170.16;;;10.44;62.00
61205;BME280;47068;55.780;37.520;2023-04-01T19:19:21;99153.13;;;9.92;62.31
61205;BME280;47068;55.780;37.520;2023-04-01T19:21:58;99182.94;;;10.10;63.15
61205;BME280;47068;55.780;37.520;2023-04-01T19:24:39;99182.13;;;10.09;62.52
61205;BME280;47068;55.780;37.520;2023-04-01T19:27:36;99193.94;;;10.07;63.23
61205;BME280;47068;55.780;37.520;2023-04-01T19:38:39;99207.25;;;9.35;64.57
61205;BME280;47068;55.780;37.520;2023-04-01T20:00:24;99215.56;;;9.16;66.70
61205;BME280;47068;55.780;37.520;2023-04-01T20:08:54;99211.06;;;9.17;67.03
61205;BME280;47068;55.780;37.520;2023-04-01T20:14:43;99217.72;;;9.04;67.86
61205;BME280;47068;55.780;37.520;2023-04-01T20:19:43;99220.53;;;9.11;67.94
61205;BME280;47068;55.780;37.520;2023-04-01T20:24:51;99208.41;;;9.08;67.75
61205;BME280;47068;55.780;37.520;2023-04-01T20:27:23;99214.25;;;9.12;68.31
61205;BME280;47068;55.780;37.520;2023-04-01T20:40:50;99189.38;;;8.97;68.04
61205;BME280;47068;55.780;37.520;2023-04-01T20:51:54;99212.75;;;9.18;68.15
61205;BME280;47068;55.780;37.520;2023-04-01T21:13:41;99228.97;;;9.15;68.39
61205;BME280;47068;55.780;37.520;2023-04-01T21:21:27;99213.41;;;9.12;68.28
61205;BME280;47068;55.780;37.520;2023-04-01T21:29:50;99233.16;;;9.33;67.83
61205;BME280;47068;55.780;37.520;2023-04-01T21:48:47;99235.13;;;9.39;67.40
61205;BME280;47068;55.780;37.520;2023-04-01T21:51:43;99242.59;;;9.44;67.65
61205;BME280;47068;55.780;37.520;2023-04-01T22:05:36;99251.88;;;9.40;67.92
61205;BME280;47068;55.780;37.520;2023-04-01T22:13:34;99263.50;;;9.39;68.25
61205;BME280;47068;55.780;37.520;2023-04-01T22:16:11;99260.66;;;9.40;68.25
61205;BME280;47068;55.780;37.520;2023-04-01T22:19:09;99136.13;;;8.66;68.30
61205;BME280;47068;55.780;37.520;2023-04-01T22:21:43;99257.84;;;9.42;68.42
61205;BME280;47068;55.780;37.520;2023-04-01T22:24:29;99250.72;;;9.51;68.29
61205;BME280;47068;55.780;37.520;2023-04-01T22:29:55;99244.25;;;9.37;68.56
61205;BME280;47068;55.780;37.520;2023-04-01T22:44:17;99255.50;;;9.55;68.51
61205;BME280;47068;55.780;37.520;2023-04-01T22:47:45;99256.00;;;9.51;68.84
61205;BME280;47068;55.780;37.520;2023-04-01T22:50:14;99264.66;;;9.44;68.58
61205;BME280;47068;55.780;37.520;2023-04-01T22:52:43;99262.84;;;9.45;69.06
61205;BME280;47068;55.780;37.520;2023-04-01T22:55:32;99265.13;;;9.48;69.22
61205;BME280;47068;55.780;37.520;2023-04-01T22:58:05;99270.97;;;9.52;69.22
61205;BME280;47068;55.780;37.520;2023-04-01T23:00:52;99268.63;;;9.40;69.55
61205;BME280;47068;55.780;37.520;2023-04-01T23:03:23;99269.28;;;9.34;70.68
61205;BME280;47068;55.780;37.520;2023-04-01T23:05:55;99275.13;;;9.38;70.66
61205;BME280;47068;55.780;37.520;2023-04-01T23:11:48;99276.09;;;9.37;71.83
61205;BME280;47068;55.780;37.520;2023-04-01T23:22:12;99266.00;;;9.24;74.29
61205;BME280;47068;55.780;37.520;2023-04-01T23:28:25;99277.28;;;9.26;74.24
61205;BME280;47068;55.780;37.520;2023-04-01T23:38:17;99257.84;;;9.18;75.08
61205;BME280;47068;55.780;37.520;2023-04-01T23:40:43;99268.31;;;9.19;75.37
61205;BME280;47068;55.780;37.520;2023-04-01T23:43:24;99252.88;;;9.06;75.16
61205;BME280;47068;55.780;37.520;2023-04-01T23:45:52;99279.94;;;9.26;75.51
61205;BME280;47068;55.780;37.520;2023-04-01T23:48:19;99277.44;;;9.25;74.53
61205;BME280;47068;55.780;37.520;2023-04-01T23:50:48;99278.41;;;9.16;74.85
61205;BME280;47068;55.780;37.520;2023-04-01T23:53:56;99278.41;;;9.16;75.35
61205;BME280;47068;55.780;37.520;2023-04-01T23:56:03;99269.63;;;9.15;74.90
61205;BME280;47068;55.780;37.520;2023-04-01T23:58:44;99274.25;;;9.13;75.01
